This is the latest recevied weather packets stored in our database for station/object N2XP-3. If no packets are shown the sender has not sent any weather packets the latest 10 day(s).
| Time | Temp. | Humidity | Pressure | Rain* | Wind** | Luminosity | Snow |
|---|---|---|---|---|---|---|---|
| 1777330155 | 17.78° C | 47% | 1020.4 hPa | 0 mm | 0 m/s | - | - |
| 1777329856 | 18.33° C | 46% | 1020.4 hPa | 0 mm | 0 m/s | - | - |
| 1777329550 | 18.33° C | 45% | 1020.3 hPa | 0 mm | 0 m/s | - | - |
| 1777329251 | 18.89° C | 44% | 1020.4 hPa | 0 mm | 0 m/s | - | - |
| 1777328952 | 18.89° C | 43% | 1020.4 hPa | 0 mm | 0.45 m/s, 65° | - | - |
| 1777328350 | 19.44° C | 42% | 1020.4 hPa | 0 mm | 0 m/s | - | - |
| 1777328046 | 20° C | 41% | 1020.5 hPa | 0 mm | 0 m/s | - | - |
| 1777327433 | 20° C | 41% | 1020.5 hPa | 0 mm | 0.45 m/s, 217° | - | - |
| 1777326831 | 20.56° C | 40% | 1020.5 hPa | 0 mm | 0.89 m/s, 138° | - | - |
| 1777326532 | 20.56° C | 40% | 1020.6 hPa | 0 mm | 0.45 m/s, 233° | - | - |
| 1777326229 | 20.56° C | 40% | 1020.6 hPa | 0 mm | 0 m/s | - | - |
| 1777325626 | 21.11° C | 39% | 1020.5 hPa | 0 mm | 1.34 m/s, 226° | - | - |
| 1777325326 | 21.11° C | 39% | 1020.6 hPa | 0 mm | 1.34 m/s, 155° | - | - |
| 1777325018 | 21.11° C | 41% | 1020.7 hPa | 0 mm | 0.89 m/s, 153° | - | - |
| 1777323816 | 21.11° C | 40% | 1020.8 hPa | 0 mm | 0.89 m/s, 76° | - | - |
| 1777322911 | 21.67° C | 39% | 1020.7 hPa | 0 mm | 1.79 m/s, 45° | - | - |
| 1777322308 | 21.67° C | 40% | 1020.6 hPa | 0 mm | 1.34 m/s, 235° | - | - |
| 1777322008 | 21.67° C | 40% | 1020.6 hPa | 0 mm | 0.89 m/s, 193° | - | - |
| 1777321405 | 22.22° C | 38% | 1020.7 hPa | 0 mm | 1.34 m/s, 158° | - | - |
| 1777320804 | 22.22° C | 38% | 1020.6 hPa | 0 mm | 0.89 m/s, 207° | - | - |
| 1777320200 | 22.22° C | 39% | 1020.5 hPa | 0 mm | 0 m/s | - | - |
| 1777319592 | 22.22° C | 39% | 1020.6 hPa | 0 mm | 1.34 m/s, 219° | - | - |
| 1777319293 | 22.22° C | 39% | 1020.6 hPa | 0 mm | 0.89 m/s, 51° | - | - |
| 1777318993 | 22.22° C | 38% | 1020.5 hPa | 0 mm | 2.68 m/s, 108° | - | - |
| 1777318690 | 21.67° C | 39% | 1020.5 hPa | 0 mm | 0.45 m/s, 215° | - | - |
* Rain latest hour (hover to see other rain measurements)
** Current wind speed in m/s (hover to see current wind gust speed)